createdAt,value
2019-01-28T00:01:25.834Z,0.00
2019-01-28T00:02:25.707Z,0.00
2019-01-28T00:04:18.589Z,0.00
2019-01-28T00:05:18.474Z,0.00
2019-01-28T00:07:11.815Z,0.00
2019-01-28T00:08:11.204Z,0.00
2019-01-28T00:10:04.078Z,0.00
2019-01-28T00:11:03.944Z,0.00
2019-01-28T00:12:56.828Z,0.00
2019-01-28T00:13:56.708Z,0.00
2019-01-28T00:15:49.588Z,0.00
2019-01-28T00:16:49.449Z,0.00
2019-01-28T00:18:42.336Z,0.00
2019-01-28T00:19:42.193Z,0.00
2019-01-28T00:21:35.078Z,0.00
2019-01-28T00:22:34.946Z,0.00
2019-01-28T00:24:27.826Z,0.00
2019-01-28T00:25:27.692Z,0.00
2019-01-28T00:27:20.576Z,0.00
2019-01-28T00:28:20.458Z,0.00
2019-01-28T00:30:13.856Z,0.00
2019-01-28T00:31:13.704Z,0.00
2019-01-28T00:33:06.586Z,0.00
2019-01-28T00:34:06.450Z,0.00
2019-01-28T00:35:59.855Z,0.00
2019-01-28T00:36:59.720Z,0.00
2019-01-28T00:38:52.600Z,0.00
2019-01-28T00:39:52.485Z,0.00
2019-01-28T00:41:45.358Z,0.00
2019-01-28T00:42:45.220Z,0.00
2019-01-28T00:44:38.612Z,0.00
2019-01-28T00:45:38.482Z,0.00
2019-01-28T00:47:31.357Z,0.00
2019-01-28T00:48:31.237Z,0.00
2019-01-28T00:50:24.117Z,0.00
2019-01-28T00:51:24.017Z,0.00
2019-01-28T00:53:16.889Z,0.00
2019-01-28T00:54:16.737Z,0.00
2019-01-28T00:56:09.619Z,0.00
2019-01-28T00:57:09.470Z,0.00
2019-01-28T00:59:02.571Z,0.00
2019-01-28T01:00:02.231Z,0.00
2019-01-28T01:01:55.133Z,0.00
2019-01-28T01:02:54.977Z,0.00
2019-01-28T01:04:47.905Z,0.00
2019-01-28T01:05:47.723Z,0.00
2019-01-28T01:07:40.616Z,0.00
2019-01-28T01:08:40.473Z,0.00
2019-01-28T01:10:33.347Z,0.00
2019-01-28T01:11:33.245Z,0.00
2019-01-28T01:13:26.115Z,0.00
2019-01-28T01:14:25.983Z,0.00
2019-01-28T01:16:18.899Z,0.00
2019-01-28T01:17:18.726Z,0.00
2019-01-28T01:19:11.599Z,0.00
2019-01-28T01:20:11.475Z,0.00
2019-01-28T01:22:04.352Z,0.00
2019-01-28T01:23:04.255Z,0.00
2019-01-28T01:24:57.098Z,0.00
2019-01-28T01:25:56.970Z,0.00
2019-01-28T01:27:49.871Z,0.00
2019-01-28T01:28:49.720Z,0.00
2019-01-28T01:30:42.608Z,0.00
2019-01-28T01:31:42.478Z,0.00
2019-01-28T01:33:35.386Z,0.00
2019-01-28T01:34:35.238Z,0.00
2019-01-28T01:36:28.096Z,0.00
2019-01-28T01:37:27.974Z,0.00
2019-01-28T01:39:20.861Z,0.00
2019-01-28T01:40:21.222Z,0.00
2019-01-28T01:42:14.117Z,0.00
2019-01-28T01:43:13.984Z,0.00
2019-01-28T01:45:06.864Z,0.00
2019-01-28T01:46:06.726Z,0.00
2019-01-28T01:47:59.688Z,0.00
2019-01-28T01:48:59.490Z,0.00
2019-01-28T01:50:52.386Z,0.00
2019-01-28T01:51:52.242Z,0.00
2019-01-28T01:53:45.114Z,0.00
2019-01-28T01:54:44.980Z,0.00
2019-01-28T01:56:37.894Z,0.00
2019-01-28T01:57:37.731Z,0.00
2019-01-28T01:59:30.618Z,0.00
2019-01-28T02:00:30.496Z,0.00
2019-01-28T02:02:23.409Z,0.00
2019-01-28T02:03:23.238Z,0.00
2019-01-28T02:05:16.129Z,0.00
2019-01-28T02:06:15.977Z,0.00
2019-01-28T02:08:08.874Z,0.00
2019-01-28T02:09:08.730Z,0.00
2019-01-28T02:11:01.607Z,0.00
2019-01-28T02:12:01.495Z,0.00
2019-01-28T02:13:54.370Z,0.00
2019-01-28T02:14:54.238Z,0.00
2019-01-28T02:16:47.151Z,0.00
2019-01-28T02:17:46.981Z,0.00
2019-01-28T02:19:39.955Z,0.00
2019-01-28T02:20:39.838Z,0.00
2019-01-28T02:22:32.744Z,0.00
2019-01-28T02:23:32.580Z,0.00
2019-01-28T02:25:25.462Z,0.00
2019-01-28T02:26:25.352Z,0.00
2019-01-28T02:28:18.243Z,0.00
2019-01-28T02:29:18.101Z,0.00
2019-01-28T02:31:10.957Z,0.00
2019-01-28T02:32:10.831Z,0.00
2019-01-28T02:34:03.844Z,0.00
2019-01-28T02:35:03.573Z,0.00
2019-01-28T02:36:56.461Z,0.00
2019-01-28T02:37:56.348Z,0.00
2019-01-28T02:39:49.314Z,0.00
2019-01-28T02:40:49.186Z,0.00
2019-01-28T02:42:42.052Z,0.00
2019-01-28T02:43:41.927Z,0.00
2019-01-28T02:45:34.847Z,0.00
2019-01-28T02:46:34.693Z,0.00
2019-01-28T02:48:27.571Z,0.00
2019-01-28T02:49:27.467Z,0.00
2019-01-28T02:51:20.342Z,0.00
2019-01-28T02:52:20.179Z,0.00
2019-01-28T02:54:13.076Z,0.00
2019-01-28T02:55:12.932Z,0.00
2019-01-28T02:57:05.830Z,0.00
2019-01-28T02:58:05.675Z,0.00
2019-01-28T02:59:58.561Z,0.00
2019-01-28T03:00:58.437Z,0.00
2019-01-28T03:02:51.315Z,0.00
2019-01-28T03:03:51.185Z,0.00
2019-01-28T03:05:44.068Z,0.00
2019-01-28T03:06:43.955Z,0.00
2019-01-28T03:08:36.812Z,0.00
2019-01-28T03:09:36.695Z,0.00
2019-01-28T03:11:29.560Z,0.00
2019-01-28T03:12:29.428Z,0.00
2019-01-28T03:14:22.338Z,0.00
2019-01-28T03:15:22.197Z,0.00
2019-01-28T03:17:15.054Z,0.00
2019-01-28T03:18:14.933Z,0.00
2019-01-28T03:20:07.847Z,0.00
2019-01-28T03:21:07.701Z,0.00
2019-01-28T03:23:00.604Z,0.00
2019-01-28T03:24:00.426Z,0.00
2019-01-28T03:25:53.300Z,0.00
2019-01-28T03:26:53.176Z,0.00
2019-01-28T03:28:46.069Z,0.00
2019-01-28T03:29:45.941Z,0.00
2019-01-28T03:31:38.817Z,0.00
2019-01-28T03:32:38.668Z,0.00
2019-01-28T03:34:31.557Z,0.00
2019-01-28T03:35:31.434Z,0.00
2019-01-28T03:37:24.615Z,0.00
2019-01-28T03:38:24.479Z,0.00
2019-01-28T03:40:17.366Z,0.00
2019-01-28T03:41:17.227Z,0.00
2019-01-28T03:43:10.158Z,0.00
2019-01-28T03:44:10.000Z,0.00
2019-01-28T03:46:02.880Z,0.00
2019-01-28T03:47:02.758Z,0.00
2019-01-28T03:48:55.743Z,0.00
2019-01-28T03:49:55.593Z,0.00
2019-01-28T03:51:48.471Z,0.00
2019-01-28T03:52:48.327Z,0.00
2019-01-28T03:54:41.327Z,0.00
2019-01-28T03:55:41.185Z,0.00
2019-01-28T03:57:34.091Z,0.00
2019-01-28T03:58:33.945Z,0.00
2019-01-28T04:00:26.823Z,0.00
2019-01-28T04:01:26.845Z,0.00
2019-01-28T04:03:19.568Z,0.00
2019-01-28T04:04:19.457Z,0.00
2019-01-28T04:06:12.321Z,0.00
2019-01-28T04:07:12.189Z,0.00
2019-01-28T04:09:05.072Z,0.00
2019-01-28T04:10:04.935Z,0.00
2019-01-28T04:11:57.817Z,0.00
2019-01-28T04:12:57.690Z,0.00
2019-01-28T04:14:50.571Z,0.00
2019-01-28T04:15:50.437Z,0.00
2019-01-28T04:17:43.823Z,0.00
2019-01-28T04:18:43.689Z,0.00
2019-01-28T04:20:36.487Z,0.00
2019-01-28T04:21:36.345Z,0.00
2019-01-28T04:23:29.228Z,0.00
2019-01-28T04:24:29.087Z,0.00
2019-01-28T04:26:21.966Z,0.00
2019-01-28T04:27:21.851Z,0.00
2019-01-28T04:29:14.855Z,0.00
2019-01-28T04:30:14.703Z,0.00
2019-01-28T04:32:07.594Z,0.00
2019-01-28T04:33:07.444Z,0.00
2019-01-28T04:35:00.318Z,0.00
2019-01-28T04:36:00.195Z,0.00
2019-01-28T04:37:53.066Z,0.00
2019-01-28T04:38:52.986Z,0.00
2019-01-28T04:40:45.740Z,0.00
2019-01-28T04:41:45.657Z,0.00
2019-01-28T04:43:38.470Z,0.00
2019-01-28T04:44:38.342Z,0.00
2019-01-28T04:46:31.235Z,0.00
2019-01-28T04:47:31.098Z,0.00
2019-01-28T04:49:24.855Z,0.00
2019-01-28T04:50:23.833Z,0.00
2019-01-28T04:52:16.717Z,0.00
2019-01-28T04:53:16.624Z,0.00
2019-01-28T04:55:09.474Z,0.00
2019-01-28T04:56:09.372Z,0.00
2019-01-28T04:58:02.139Z,0.00
2019-01-28T04:59:01.989Z,0.00
2019-01-28T05:00:54.864Z,0.00
2019-01-28T05:01:54.747Z,0.00
2019-01-28T05:03:47.612Z,0.00
2019-01-28T05:04:47.490Z,0.00
2019-01-28T05:06:40.373Z,0.00
2019-01-28T05:07:40.231Z,0.00
2019-01-28T05:09:33.239Z,0.00
2019-01-28T05:10:33.081Z,0.00
2019-01-28T05:12:25.962Z,0.00
2019-01-28T05:13:25.835Z,0.00
2019-01-28T05:15:18.729Z,0.00
2019-01-28T05:16:18.580Z,0.00
2019-01-28T05:18:11.463Z,0.00
2019-01-28T05:19:11.338Z,0.00
2019-01-28T05:21:04.387Z,0.00
2019-01-28T05:22:04.206Z,0.00
2019-01-28T05:23:57.070Z,0.00
2019-01-28T05:24:56.923Z,0.00
2019-01-28T05:26:49.824Z,0.00
2019-01-28T05:27:49.676Z,0.00
2019-01-28T05:29:42.609Z,0.00
2019-01-28T05:30:42.421Z,0.00
2019-01-28T05:32:35.318Z,0.00
2019-01-28T05:33:35.230Z,0.00
2019-01-28T05:35:28.071Z,0.00
2019-01-28T05:36:27.923Z,0.00
2019-01-28T05:38:21.331Z,0.00
2019-01-28T05:39:21.190Z,0.00
2019-01-28T05:41:14.071Z,0.00
2019-01-28T05:42:13.935Z,0.00
2019-01-28T05:44:06.819Z,0.00
2019-01-28T05:45:06.691Z,0.00
2019-01-28T05:46:59.609Z,0.00
2019-01-28T05:47:59.458Z,0.00
2019-01-28T05:49:52.350Z,0.00
2019-01-28T05:50:52.205Z,0.00
2019-01-28T05:52:45.077Z,0.00
2019-01-28T05:53:44.993Z,0.00
2019-01-28T05:55:37.712Z,0.00
2019-01-28T05:56:37.595Z,0.00
2019-01-28T05:58:30.488Z,0.00
2019-01-28T05:59:30.356Z,0.00
2019-01-28T06:01:23.346Z,0.00
2019-01-28T06:02:25.141Z,0.00
2019-01-28T06:04:16.080Z,0.00
2019-01-28T06:05:15.940Z,0.00
2019-01-28T06:07:08.830Z,0.00
2019-01-28T06:08:08.710Z,0.00
2019-01-28T06:10:01.784Z,0.00
2019-01-28T06:11:01.656Z,0.00
2019-01-28T06:12:54.450Z,0.00
2019-01-28T06:13:54.300Z,0.00
2019-01-28T06:15:47.160Z,0.00
2019-01-28T06:16:47.035Z,0.00
2019-01-28T06:18:39.918Z,0.00
2019-01-28T06:19:39.806Z,0.00
2019-01-28T06:21:32.660Z,0.00
2019-01-28T06:22:32.542Z,0.00
2019-01-28T06:24:25.339Z,0.00
2019-01-28T06:25:25.191Z,0.00
2019-01-28T06:27:17.964Z,0.00
2019-01-28T06:28:17.838Z,0.00
2019-01-28T06:30:10.706Z,0.00
2019-01-28T06:31:10.573Z,0.00
2019-01-28T06:33:03.392Z,0.00
2019-01-28T06:34:03.245Z,0.00
2019-01-28T06:35:56.009Z,0.00
2019-01-28T06:36:55.882Z,0.00
2019-01-28T06:38:48.768Z,0.00
2019-01-28T06:39:48.633Z,0.00
2019-01-28T06:41:41.409Z,0.00
2019-01-28T06:42:41.284Z,0.00
2019-01-28T06:44:34.051Z,0.00
2019-01-28T06:45:33.926Z,0.00
2019-01-28T06:47:26.705Z,0.00
2019-01-28T06:48:26.627Z,0.00
2019-01-28T06:50:19.366Z,0.00
2019-01-28T06:51:19.222Z,0.00
2019-01-28T06:53:12.080Z,0.00
2019-01-28T06:54:11.870Z,0.00
2019-01-28T06:56:04.647Z,0.00
2019-01-28T06:57:04.511Z,0.00
2019-01-28T06:58:57.289Z,0.00
2019-01-28T06:59:57.157Z,0.00
2019-01-28T07:01:50.377Z,0.00
2019-01-28T07:02:50.209Z,0.00
2019-01-28T07:04:43.006Z,0.00
2019-01-28T07:05:42.869Z,0.00
2019-01-28T07:07:35.673Z,0.00
2019-01-28T07:08:35.529Z,0.00
2019-01-28T07:10:28.317Z,0.00
2019-01-28T07:11:28.189Z,0.00
2019-01-28T07:13:21.086Z,0.00
2019-01-28T07:14:20.918Z,0.00
2019-01-28T07:16:13.806Z,0.00
2019-01-28T07:17:13.670Z,0.00
2019-01-28T07:19:06.445Z,5.63
2019-01-28T07:20:06.315Z,5.63
2019-01-28T07:21:59.077Z,5.63
2019-01-28T07:22:58.959Z,5.63
2019-01-28T07:24:51.819Z,5.63
2019-01-28T07:25:51.700Z,5.63
2019-01-28T07:27:44.480Z,11.25
2019-01-28T07:28:44.355Z,11.25
2019-01-28T07:30:37.123Z,11.25
2019-01-28T07:31:37.011Z,11.25
2019-01-28T07:33:29.870Z,11.25
2019-01-28T07:34:29.747Z,16.88
2019-01-28T07:36:22.551Z,16.88
2019-01-28T07:37:22.390Z,16.88
2019-01-28T07:39:15.167Z,16.88
2019-01-28T07:40:15.046Z,16.88
2019-01-28T07:42:07.818Z,22.50
2019-01-28T07:43:07.700Z,22.50
2019-01-28T07:45:00.460Z,22.50
2019-01-28T07:46:00.346Z,28.13
2019-01-28T07:48:02.800Z,28.13
2019-01-28T07:48:56.062Z,28.13
2019-01-28T07:50:48.832Z,28.13
2019-01-28T07:51:48.712Z,28.13
2019-01-28T07:53:41.578Z,33.75
2019-01-28T07:54:41.458Z,33.75
2019-01-28T07:56:34.231Z,39.38
2019-01-28T07:57:34.106Z,39.38
2019-01-28T07:59:26.874Z,39.38
2019-01-28T08:00:26.774Z,39.38
2019-01-28T08:02:20.132Z,39.38
2019-01-28T08:03:20.041Z,39.38
2019-01-28T08:05:12.780Z,50.63
2019-01-28T08:06:12.662Z,50.63
2019-01-28T08:08:05.449Z,50.63
2019-01-28T08:09:05.302Z,50.63
2019-01-28T08:10:58.078Z,45.00
2019-01-28T08:11:57.965Z,45.00
2019-01-28T08:13:52.445Z,56.25
2019-01-28T08:14:50.714Z,56.25
2019-01-28T08:16:43.479Z,61.88
2019-01-28T08:17:43.344Z,56.25
2019-01-28T08:19:36.127Z,56.25
2019-01-28T08:20:35.993Z,61.88
2019-01-28T08:22:28.765Z,61.88
2019-01-28T08:23:28.654Z,61.88
2019-01-28T08:25:21.422Z,61.88
2019-01-28T08:26:21.312Z,56.25
2019-01-28T08:28:14.062Z,61.88
2019-01-28T08:29:13.933Z,61.88
2019-01-28T08:31:06.717Z,56.25
2019-01-28T08:32:06.584Z,61.88
2019-01-28T08:33:59.351Z,67.50
2019-01-28T08:34:59.233Z,56.25
2019-01-28T08:36:52.637Z,67.50
2019-01-28T08:37:52.499Z,61.88
2019-01-28T08:39:45.268Z,56.25
2019-01-28T08:40:45.731Z,61.88
2019-01-28T08:42:37.923Z,67.50
2019-01-28T08:43:37.790Z,61.88
2019-01-28T08:45:30.627Z,61.88
2019-01-28T08:46:30.457Z,67.50
2019-01-28T08:48:23.239Z,73.13
2019-01-28T08:49:23.089Z,67.50
2019-01-28T08:51:15.976Z,73.13
2019-01-28T08:52:15.852Z,67.50
2019-01-28T08:54:08.617Z,73.13
2019-01-28T08:55:08.488Z,67.50
2019-01-28T08:57:01.397Z,73.13
2019-01-28T08:58:01.215Z,73.13
2019-01-28T08:59:54.119Z,67.50
2019-01-28T09:00:53.981Z,73.13
2019-01-28T09:02:46.774Z,73.13
2019-01-28T09:03:46.634Z,73.13
2019-01-28T09:05:39.403Z,73.13
2019-01-28T09:06:39.268Z,73.13
2019-01-28T09:08:32.097Z,73.13
2019-01-28T09:09:31.926Z,73.13
2019-01-28T09:11:24.800Z,84.38
2019-01-28T09:12:24.678Z,84.38
2019-01-28T09:14:17.455Z,84.38
2019-01-28T09:15:17.318Z,90.00
2019-01-28T09:17:10.182Z,95.63
2019-01-28T09:18:10.120Z,95.63
2019-01-28T09:20:02.830Z,95.63
2019-01-28T09:21:02.722Z,95.63
2019-01-28T09:22:55.596Z,95.63
2019-01-28T09:23:55.475Z,95.63
2019-01-28T09:25:48.344Z,95.63
2019-01-28T09:26:48.226Z,95.63
2019-01-28T09:28:41.094Z,95.63
2019-01-28T09:29:40.963Z,101.25
2019-01-28T09:31:33.850Z,101.25
2019-01-28T09:32:33.704Z,95.63
2019-01-28T09:34:26.588Z,101.25
2019-01-28T09:35:26.454Z,101.25
2019-01-28T09:37:19.336Z,101.25
2019-01-28T09:38:19.201Z,95.63
2019-01-28T09:40:11.991Z,95.63
2019-01-28T09:41:11.859Z,101.25
2019-01-28T09:43:04.756Z,95.63
2019-01-28T09:44:04.624Z,95.63
2019-01-28T09:45:57.497Z,101.25
2019-01-28T09:46:57.350Z,101.25
2019-01-28T09:48:50.767Z,101.25
2019-01-28T09:49:50.680Z,101.25
2019-01-28T09:51:43.541Z,101.25
2019-01-28T09:52:43.363Z,101.25
2019-01-28T09:54:36.242Z,106.88
2019-01-28T09:55:36.111Z,106.88
2019-01-28T09:57:29.003Z,106.88
2019-01-28T09:58:28.863Z,101.25
2019-01-28T10:00:21.747Z,84.38
2019-01-28T10:01:21.622Z,78.75
2019-01-28T10:03:14.489Z,73.13
2019-01-28T10:04:14.366Z,73.13
2019-01-28T10:06:07.243Z,67.50
2019-01-28T10:07:07.116Z,67.50
2019-01-28T10:08:59.999Z,67.50
2019-01-28T10:09:59.861Z,61.88
2019-01-28T10:11:53.165Z,61.88
2019-01-28T10:12:53.023Z,61.88
2019-01-28T10:14:45.903Z,61.88
2019-01-28T10:15:45.786Z,61.88
2019-01-28T10:17:38.650Z,61.88
2019-01-28T10:18:41.949Z,67.50
2019-01-28T10:20:31.862Z,67.50
2019-01-28T10:21:31.690Z,67.50
2019-01-28T10:23:26.109Z,67.50
2019-01-28T10:24:24.433Z,67.50
2019-01-28T10:26:17.330Z,73.13
2019-01-28T10:27:17.181Z,73.13
2019-01-28T10:29:10.081Z,73.13
2019-01-28T10:30:09.932Z,73.13
2019-01-28T10:32:02.834Z,73.13
2019-01-28T10:33:02.959Z,73.13
2019-01-28T10:34:55.552Z,73.13
2019-01-28T10:35:55.424Z,73.13
2019-01-28T10:37:48.310Z,73.13
2019-01-28T10:38:48.191Z,73.13
2019-01-28T10:40:41.057Z,73.13
2019-01-28T10:41:40.932Z,73.13
2019-01-28T10:43:33.822Z,78.75
2019-01-28T10:44:33.674Z,78.75
2019-01-28T10:46:26.558Z,78.75
2019-01-28T10:47:26.424Z,78.75
2019-01-28T10:49:19.310Z,78.75
2019-01-28T10:50:19.184Z,78.75
2019-01-28T10:52:12.064Z,78.75
2019-01-28T10:53:11.938Z,78.75
2019-01-28T10:55:04.821Z,78.75
2019-01-28T10:56:04.672Z,78.75
2019-01-28T10:57:57.561Z,78.75
2019-01-28T10:58:57.422Z,78.75
2019-01-28T11:00:50.614Z,78.75
2019-01-28T11:01:50.486Z,78.75
2019-01-28T11:03:43.394Z,78.75
2019-01-28T11:04:43.236Z,78.75
2019-01-28T11:06:36.112Z,78.75
2019-01-28T11:07:35.988Z,78.75
2019-01-28T11:09:28.875Z,78.75
2019-01-28T11:10:28.722Z,78.75
2019-01-28T11:12:21.737Z,73.13
2019-01-28T11:13:21.482Z,73.13
2019-01-28T11:15:14.489Z,73.13
2019-01-28T11:16:14.270Z,73.13
2019-01-28T11:18:07.158Z,73.13
2019-01-28T11:19:07.089Z,73.13
2019-01-28T11:20:59.861Z,73.13
2019-01-28T11:21:59.749Z,73.13
2019-01-28T11:23:52.654Z,78.75
2019-01-28T11:24:52.495Z,78.75
2019-01-28T11:26:45.433Z,78.75
2019-01-28T11:27:45.246Z,78.75
2019-01-28T11:29:38.260Z,84.38
2019-01-28T11:30:38.040Z,84.38
2019-01-28T11:32:30.942Z,84.38
2019-01-28T11:33:30.798Z,84.38
2019-01-28T11:35:23.605Z,84.38
2019-01-28T11:36:23.648Z,84.38
2019-01-28T11:38:16.385Z,84.38
2019-01-28T11:39:16.274Z,84.38
2019-01-28T11:41:09.142Z,90.00
2019-01-28T11:42:09.005Z,90.00
2019-01-28T11:44:03.437Z,90.00
2019-01-28T11:45:03.160Z,90.00
2019-01-28T11:46:56.106Z,90.00
2019-01-28T11:47:55.918Z,90.00
2019-01-28T11:49:48.788Z,90.00
2019-01-28T11:50:55.925Z,90.00
2019-01-28T11:52:41.535Z,95.63
2019-01-28T11:53:41.419Z,95.63
2019-01-28T11:55:34.314Z,112.50
2019-01-28T11:56:34.153Z,129.38
2019-01-28T11:58:27.036Z,112.50
2019-01-28T11:59:26.906Z,101.25
2019-01-28T12:01:19.778Z,95.63
2019-01-28T12:02:19.658Z,95.63
2019-01-28T12:04:12.530Z,90.00
2019-01-28T12:05:12.404Z,90.00
2019-01-28T12:07:05.299Z,90.00
2019-01-28T12:08:05.168Z,84.38
2019-01-28T12:09:58.066Z,78.75
2019-01-28T12:10:57.900Z,73.13
2019-01-28T12:12:50.818Z,73.13
2019-01-28T12:13:50.652Z,67.50
2019-01-28T12:15:43.542Z,67.50
2019-01-28T12:16:43.426Z,67.50
2019-01-28T12:18:36.826Z,61.88
2019-01-28T12:19:36.666Z,61.88
2019-01-28T12:21:29.560Z,61.88
2019-01-28T12:22:29.414Z,56.25
2019-01-28T12:24:22.806Z,61.88
2019-01-28T12:25:22.676Z,61.88
2019-01-28T12:27:15.589Z,61.88
2019-01-28T12:28:15.426Z,61.88
2019-01-28T12:30:08.306Z,56.25
2019-01-28T12:31:08.182Z,56.25
2019-01-28T12:33:01.068Z,56.25
2019-01-28T12:34:00.927Z,50.63
2019-01-28T12:35:53.821Z,50.63
2019-01-28T12:36:53.674Z,45.00
2019-01-28T12:38:46.573Z,45.00
2019-01-28T12:39:46.441Z,39.38
2019-01-28T12:41:39.328Z,39.38
2019-01-28T12:42:39.182Z,45.00
2019-01-28T12:44:32.577Z,45.00
2019-01-28T12:45:32.449Z,39.38
2019-01-28T12:47:25.318Z,45.00
2019-01-28T12:48:25.199Z,45.00
2019-01-28T12:50:18.103Z,45.00
2019-01-28T12:51:17.953Z,45.00
2019-01-28T12:53:10.807Z,45.00
2019-01-28T12:54:10.707Z,45.00
2019-01-28T12:56:03.560Z,45.00
2019-01-28T12:57:03.458Z,45.00
2019-01-28T12:58:56.337Z,45.00
2019-01-28T12:59:56.206Z,45.00
2019-01-28T13:01:49.075Z,45.00
2019-01-28T13:02:48.947Z,45.00
2019-01-28T13:04:42.390Z,45.00
2019-01-28T13:05:41.689Z,45.00
2019-01-28T13:07:34.691Z,45.00
2019-01-28T13:08:34.552Z,45.00
2019-01-28T13:10:27.413Z,45.00
2019-01-28T13:11:27.288Z,45.00
2019-01-28T13:13:20.178Z,39.38
2019-01-28T13:14:20.064Z,39.38
2019-01-28T13:16:12.934Z,39.38
2019-01-28T13:17:12.787Z,39.38
2019-01-28T13:19:05.664Z,39.38
2019-01-28T13:20:05.553Z,39.38
2019-01-28T13:21:58.419Z,39.38
2019-01-28T13:22:58.283Z,39.38
2019-01-28T13:24:51.161Z,39.38
2019-01-28T13:25:51.049Z,39.38
2019-01-28T13:27:43.939Z,33.75
2019-01-28T13:28:43.806Z,33.75
2019-01-28T13:30:36.676Z,33.75
2019-01-28T13:31:38.061Z,28.13
2019-01-28T13:33:30.074Z,28.13
2019-01-28T13:34:29.282Z,28.13
2019-01-28T13:36:22.329Z,28.13
2019-01-28T13:37:22.155Z,28.13
2019-01-28T13:39:14.916Z,22.50
2019-01-28T13:40:14.790Z,22.50
2019-01-28T13:42:07.871Z,22.50
2019-01-28T13:43:07.742Z,22.50
2019-01-28T13:45:00.632Z,16.88
2019-01-28T13:46:00.524Z,16.88
2019-01-28T13:47:53.366Z,16.88
2019-01-28T13:48:53.247Z,16.88
2019-01-28T13:50:46.982Z,22.50
2019-01-28T13:51:45.998Z,22.50
2019-01-28T13:53:38.862Z,22.50
2019-01-28T13:54:38.777Z,22.50
2019-01-28T13:56:31.633Z,22.50
2019-01-28T13:57:31.521Z,22.50
2019-01-28T13:59:24.379Z,16.88
2019-01-28T14:00:24.293Z,16.88
2019-01-28T14:02:17.127Z,16.88
2019-01-28T14:03:17.000Z,16.88
2019-01-28T14:05:09.857Z,11.25
2019-01-28T14:06:09.747Z,11.25
2019-01-28T14:08:02.617Z,11.25
2019-01-28T14:09:02.513Z,11.25
2019-01-28T14:10:55.391Z,11.25
2019-01-28T14:11:55.235Z,11.25
2019-01-28T14:13:48.111Z,11.25
2019-01-28T14:14:47.989Z,11.25
2019-01-28T14:16:40.863Z,5.63
2019-01-28T14:17:40.731Z,5.63
2019-01-28T14:19:33.601Z,5.63
2019-01-28T14:20:33.498Z,5.63
2019-01-28T14:22:26.368Z,5.63
2019-01-28T14:23:26.250Z,5.63
2019-01-28T14:25:19.121Z,5.63
2019-01-28T14:26:18.987Z,5.63
2019-01-28T14:28:11.882Z,5.63
2019-01-28T14:29:11.748Z,5.63
2019-01-28T14:31:04.611Z,5.63
2019-01-28T14:32:04.492Z,5.63
2019-01-28T14:33:57.357Z,5.63
2019-01-28T14:34:57.226Z,5.63
2019-01-28T14:36:50.130Z,5.63
2019-01-28T14:37:49.988Z,5.63
2019-01-28T14:39:42.861Z,5.63
2019-01-28T14:40:42.729Z,5.63
2019-01-28T14:42:35.614Z,5.63
2019-01-28T14:43:35.479Z,5.63
2019-01-28T14:45:28.366Z,5.63
2019-01-28T14:46:28.270Z,5.63
2019-01-28T14:48:21.118Z,5.63
2019-01-28T14:49:20.984Z,5.63
2019-01-28T14:51:13.898Z,11.25
2019-01-28T14:52:13.728Z,11.25
2019-01-28T14:54:06.603Z,5.63
2019-01-28T14:55:06.478Z,5.63
2019-01-28T14:56:59.398Z,5.63
2019-01-28T14:57:59.234Z,5.63
2019-01-28T14:59:52.644Z,5.63
2019-01-28T15:00:52.506Z,5.63
2019-01-28T15:02:45.398Z,5.63
2019-01-28T15:03:45.234Z,5.63
2019-01-28T15:05:38.122Z,5.63
2019-01-28T15:06:37.986Z,5.63
2019-01-28T15:08:30.892Z,5.63
2019-01-28T15:09:30.754Z,5.63
2019-01-28T15:11:23.614Z,0.00
2019-01-28T15:12:23.488Z,0.00
2019-01-28T15:14:16.366Z,0.00
2019-01-28T15:15:16.252Z,0.00
2019-01-28T15:17:09.631Z,0.00
2019-01-28T15:18:09.510Z,0.00
2019-01-28T15:20:02.871Z,0.00
2019-01-28T15:21:02.239Z,0.00
2019-01-28T15:22:55.130Z,0.00
2019-01-28T15:23:54.995Z,0.00
2019-01-28T15:25:47.892Z,0.00
2019-01-28T15:26:47.774Z,0.00
2019-01-28T15:28:40.632Z,0.00
2019-01-28T15:29:40.517Z,0.00
2019-01-28T15:31:33.376Z,0.00
2019-01-28T15:32:33.252Z,0.00
2019-01-28T15:34:26.236Z,0.00
2019-01-28T15:35:25.999Z,0.00
2019-01-28T15:37:18.873Z,0.00
2019-01-28T15:38:18.761Z,0.00
2019-01-28T15:40:13.820Z,0.00
2019-01-28T15:41:11.493Z,0.00
2019-01-28T15:43:05.406Z,0.00
2019-01-28T15:44:05.285Z,0.00
2019-01-28T15:45:58.145Z,0.00
2019-01-28T15:46:58.015Z,0.00
2019-01-28T15:48:50.916Z,0.00
2019-01-28T15:49:50.787Z,0.00
2019-01-28T15:51:43.657Z,0.00
2019-01-28T15:52:43.524Z,0.00
2019-01-28T15:54:36.905Z,0.00
2019-01-28T15:55:36.779Z,0.00
2019-01-28T15:57:29.672Z,0.00
2019-01-28T15:58:29.520Z,0.00
2019-01-28T16:00:22.519Z,0.00
2019-01-28T16:01:22.383Z,0.00
2019-01-28T16:03:15.294Z,0.00
2019-01-28T16:04:15.136Z,0.00
2019-01-28T16:06:08.022Z,0.00
2019-01-28T16:07:07.871Z,0.00
2019-01-28T16:09:00.778Z,0.00
2019-01-28T16:10:00.628Z,0.00
2019-01-28T16:11:53.506Z,0.00
2019-01-28T16:12:53.385Z,0.00
2019-01-28T16:14:46.258Z,0.00
2019-01-28T16:15:46.129Z,0.00
2019-01-28T16:17:39.033Z,0.00
2019-01-28T16:18:38.879Z,0.00
2019-01-28T16:20:31.853Z,0.00
2019-01-28T16:21:31.724Z,0.00
2019-01-28T16:23:24.613Z,0.00
2019-01-28T16:24:24.488Z,0.00
2019-01-28T16:26:17.368Z,0.00
2019-01-28T16:27:17.233Z,0.00
2019-01-28T16:29:10.105Z,0.00
2019-01-28T16:30:09.970Z,0.00
2019-01-28T16:32:03.256Z,0.00
2019-01-28T16:33:03.130Z,0.00
2019-01-28T16:34:56.030Z,0.00
2019-01-28T16:35:55.885Z,0.00
2019-01-28T16:37:48.782Z,0.00
2019-01-28T16:38:48.637Z,0.00
2019-01-28T16:40:41.946Z,0.00
2019-01-28T16:41:41.810Z,0.00
2019-01-28T16:43:34.666Z,0.00
2019-01-28T16:44:34.544Z,0.00
2019-01-28T16:46:27.728Z,0.00
2019-01-28T16:47:27.624Z,0.00
2019-01-28T16:49:20.611Z,0.00
2019-01-28T16:50:26.691Z,0.00
2019-01-28T16:52:13.339Z,0.00
2019-01-28T16:53:13.199Z,0.00
2019-01-28T16:55:06.101Z,0.00
2019-01-28T16:56:05.952Z,0.00
2019-01-28T16:57:58.833Z,0.00
2019-01-28T16:58:58.702Z,0.00
2019-01-28T17:00:51.583Z,0.00
2019-01-28T17:01:51.482Z,0.00
2019-01-28T17:03:44.358Z,0.00
2019-01-28T17:04:44.210Z,0.00
2019-01-28T17:06:37.565Z,0.00
2019-01-28T17:07:36.941Z,0.00
2019-01-28T17:09:29.832Z,0.00
2019-01-28T17:10:29.696Z,0.00
2019-01-28T17:12:22.591Z,0.00
2019-01-28T17:13:22.444Z,0.00
2019-01-28T17:15:15.315Z,0.00
2019-01-28T17:16:15.200Z,0.00
2019-01-28T17:18:08.077Z,0.00
2019-01-28T17:19:07.971Z,0.00
2019-01-28T17:21:00.845Z,0.00
2019-01-28T17:22:00.693Z,0.00
2019-01-28T17:23:53.588Z,0.00
2019-01-28T17:24:53.447Z,0.00
2019-01-28T17:26:46.333Z,0.00
2019-01-28T17:27:46.195Z,0.00
2019-01-28T17:29:39.199Z,0.00
2019-01-28T17:30:38.960Z,0.00
2019-01-28T17:32:31.847Z,0.00
2019-01-28T17:33:31.703Z,0.00
2019-01-28T17:35:24.720Z,0.00
2019-01-28T17:36:24.553Z,0.00
2019-01-28T17:38:17.433Z,0.00
2019-01-28T17:39:17.305Z,0.00
2019-01-28T17:41:10.187Z,0.00
2019-01-28T17:42:10.046Z,0.00
2019-01-28T17:44:02.938Z,0.00
2019-01-28T17:45:02.800Z,0.00
2019-01-28T17:46:55.716Z,0.00
2019-01-28T17:47:55.550Z,0.00
2019-01-28T17:49:48.441Z,0.00
2019-01-28T17:50:48.332Z,0.00
2019-01-28T17:52:41.182Z,0.00
2019-01-28T17:53:41.057Z,0.00
2019-01-28T17:55:33.932Z,0.00
2019-01-28T17:56:33.799Z,0.00
2019-01-28T17:58:26.826Z,0.00
2019-01-28T17:59:26.554Z,0.00
2019-01-28T18:01:19.440Z,0.00
2019-01-28T18:02:19.319Z,0.00
2019-01-28T18:04:12.091Z,0.00
2019-01-28T18:05:11.958Z,0.00
2019-01-28T18:07:04.825Z,0.00
2019-01-28T18:08:04.717Z,0.00
2019-01-28T18:09:57.595Z,0.00
2019-01-28T18:10:57.452Z,0.00
2019-01-28T18:12:50.333Z,0.00
2019-01-28T18:13:50.196Z,0.00
2019-01-28T18:15:43.078Z,0.00
2019-01-28T18:16:42.952Z,0.00
2019-01-28T18:18:35.820Z,0.00
2019-01-28T18:19:35.680Z,0.00
2019-01-28T18:21:28.584Z,0.00
2019-01-28T18:22:28.440Z,0.00
2019-01-28T18:24:21.347Z,0.00
2019-01-28T18:25:21.197Z,0.00
2019-01-28T18:27:14.083Z,0.00
2019-01-28T18:28:13.934Z,0.00
2019-01-28T18:30:07.343Z,0.00
2019-01-28T18:31:07.199Z,0.00
2019-01-28T18:33:00.107Z,0.00
2019-01-28T18:34:00.007Z,0.00
2019-01-28T18:35:52.832Z,0.00
2019-01-28T18:36:52.715Z,0.00
2019-01-28T18:38:45.580Z,0.00
2019-01-28T18:39:45.471Z,0.00
2019-01-28T18:41:38.351Z,0.00
2019-01-28T18:42:38.209Z,0.00
2019-01-28T18:44:31.089Z,0.00
2019-01-28T18:45:30.945Z,0.00
2019-01-28T18:47:23.945Z,0.00
2019-01-28T18:48:23.799Z,0.00
2019-01-28T18:50:16.697Z,0.00
2019-01-28T18:51:16.549Z,0.00
2019-01-28T18:53:09.463Z,0.00
2019-01-28T18:54:09.303Z,0.00
2019-01-28T18:56:02.201Z,0.00